createdAt,value
2022-10-30T00:00:45.379Z,20.93
2022-10-30T00:03:48.185Z,20.94
2022-10-30T00:06:52.474Z,20.93
2022-10-30T00:09:55.243Z,20.92
2022-10-30T00:12:58.066Z,20.91
2022-10-30T00:16:03.730Z,20.91
2022-10-30T00:19:06.705Z,20.91
2022-10-30T00:22:11.065Z,20.91
2022-10-30T00:25:13.869Z,20.90
2022-10-30T00:28:16.648Z,20.91
2022-10-30T00:31:20.047Z,20.91
2022-10-30T00:34:22.930Z,20.91
2022-10-30T00:37:27.112Z,20.93
2022-10-30T00:40:30.267Z,20.92
2022-10-30T00:43:36.031Z,20.93
2022-10-30T00:46:42.174Z,20.91
2022-10-30T00:49:52.974Z,20.91
2022-10-30T00:53:01.912Z,20.91
2022-10-30T00:56:08.067Z,20.91
2022-10-30T00:59:14.932Z,20.90
2022-10-30T01:02:20.743Z,20.90
2022-10-30T01:05:26.247Z,20.90
2022-10-30T01:08:30.805Z,20.90
2022-10-30T01:11:33.634Z,20.90
2022-10-30T01:14:41.214Z,20.89
2022-10-30T01:18:08.698Z,20.90
2022-10-30T01:21:21.156Z,20.92
2022-10-30T01:24:38.701Z,20.91
2022-10-30T01:27:50.737Z,20.91
2022-10-30T01:31:05.590Z,20.91
2022-10-30T01:34:20.121Z,20.91
2022-10-30T01:37:33.685Z,20.90
2022-10-30T01:40:38.193Z,20.89
2022-10-30T01:43:42.688Z,20.89
2022-10-30T01:47:09.432Z,20.89
2022-10-30T01:50:24.477Z,20.88
2022-10-30T01:53:43.166Z,20.89
2022-10-30T01:56:57.705Z,20.90
2022-10-30T02:00:05.437Z,20.89
2022-10-30T02:03:15.979Z,20.90
2022-10-30T02:06:19.063Z,20.89
2022-10-30T02:09:22.776Z,20.90
2022-10-30T02:12:28.583Z,20.89
2022-10-30T02:15:32.785Z,20.88
2022-10-30T02:18:35.733Z,20.89
2022-10-30T02:21:40.581Z,20.88
2022-10-30T02:24:43.413Z,20.88
2022-10-30T02:27:46.207Z,20.88
2022-10-30T02:30:49.149Z,20.87
2022-10-30T02:33:53.130Z,20.88
2022-10-30T02:36:57.293Z,20.88
2022-10-30T02:40:00.176Z,20.87
2022-10-30T02:43:03.008Z,20.89
2022-10-30T02:46:06.629Z,20.88
2022-10-30T02:49:10.125Z,20.89
2022-10-30T02:52:14.467Z,20.89
2022-10-30T02:55:18.793Z,20.88
2022-10-30T02:58:23.234Z,20.88
2022-10-30T03:01:26.514Z,20.87
2022-10-30T03:04:32.935Z,20.87
2022-10-30T03:07:37.185Z,20.86
2022-10-30T03:10:40.088Z,20.87
2022-10-30T03:13:44.437Z,20.87
2022-10-30T03:16:47.340Z,20.87
2022-10-30T03:19:52.543Z,20.87
2022-10-30T03:22:56.715Z,20.87
2022-10-30T03:26:00.670Z,20.88
2022-10-30T03:29:04.441Z,20.87
2022-10-30T03:32:10.741Z,20.88
2022-10-30T03:35:20.992Z,20.88
2022-10-30T03:38:25.332Z,20.88
2022-10-30T03:41:28.153Z,20.87
2022-10-30T03:44:30.926Z,20.87
2022-10-30T03:47:33.783Z,20.87
2022-10-30T03:50:36.577Z,20.86
2022-10-30T03:53:41.902Z,20.85
2022-10-30T03:56:45.773Z,20.86
2022-10-30T03:59:52.054Z,20.85
2022-10-30T04:03:13.587Z,20.86
2022-10-30T04:06:18.725Z,20.87
2022-10-30T04:09:22.929Z,20.86
2022-10-30T04:12:25.777Z,20.87
2022-10-30T04:15:29.048Z,20.87
2022-10-30T04:18:31.915Z,20.86
2022-10-30T04:21:34.770Z,20.85
2022-10-30T04:24:39.837Z,20.86
2022-10-30T04:27:43.207Z,20.86
2022-10-30T04:30:46.980Z,20.85
2022-10-30T04:33:51.843Z,20.85
2022-10-30T04:36:55.418Z,20.84
2022-10-30T04:40:00.567Z,20.85
2022-10-30T04:43:10.060Z,20.84
2022-10-30T04:46:14.001Z,20.85
2022-10-30T04:49:16.774Z,20.86
2022-10-30T04:52:19.569Z,20.86
2022-10-30T04:55:23.720Z,20.85
2022-10-30T04:58:26.912Z,20.86
2022-10-30T05:01:38.140Z,20.84
2022-10-30T05:04:42.301Z,20.85
2022-10-30T05:07:45.122Z,20.84
2022-10-30T05:10:49.830Z,20.84
2022-10-30T05:13:52.772Z,20.84
2022-10-30T05:16:55.938Z,20.84
2022-10-30T05:19:58.749Z,20.83
2022-10-30T05:23:02.073Z,20.83
2022-10-30T05:26:06.447Z,20.84
2022-10-30T05:29:09.637Z,20.84
2022-10-30T05:35:23.735Z,20.85
2022-10-30T05:38:26.768Z,20.85
2022-10-30T05:41:31.256Z,20.85
2022-10-30T05:44:58.733Z,20.84
2022-10-30T05:47:58.544Z,20.84
2022-10-30T05:51:02.477Z,20.84
2022-10-30T05:54:06.957Z,20.84
2022-10-30T05:57:13.959Z,20.84
2022-10-30T06:00:18.017Z,20.83
2022-10-30T06:03:20.896Z,20.83
2022-10-30T06:06:23.789Z,20.84
2022-10-30T06:09:26.869Z,20.84
2022-10-30T06:12:55.173Z,20.86
2022-10-30T06:16:08.097Z,20.85
2022-10-30T06:19:29.659Z,20.86
2022-10-30T06:22:44.388Z,20.85
2022-10-30T06:25:51.643Z,20.85
2022-10-30T06:29:00.683Z,20.85
2022-10-30T06:32:06.499Z,20.84
2022-10-30T06:35:10.694Z,20.85
2022-10-30T06:38:14.880Z,20.84
2022-10-30T06:41:18.141Z,20.84
2022-10-30T06:44:40.780Z,20.84
2022-10-30T06:47:43.935Z,20.84
2022-10-30T06:50:46.775Z,20.85
2022-10-30T06:53:49.980Z,20.86
2022-10-30T06:57:11.108Z,20.86
2022-10-30T07:00:36.031Z,20.85
2022-10-30T07:04:08.214Z,20.85
2022-10-30T07:07:11.030Z,20.85
2022-10-30T07:10:13.962Z,20.86
2022-10-30T07:13:35.487Z,20.85
2022-10-30T07:16:55.507Z,20.84
2022-10-30T07:19:58.519Z,20.84
2022-10-30T07:23:02.203Z,20.85
2022-10-30T07:26:05.068Z,20.84
2022-10-30T07:29:12.061Z,20.84
2022-10-30T07:32:20.596Z,20.84
2022-10-30T07:35:36.722Z,20.85
2022-10-30T07:39:06.534Z,20.86
2022-10-30T07:42:13.668Z,20.86
2022-10-30T07:45:38.949Z,20.86
2022-10-30T07:49:13.011Z,20.86
2022-10-30T07:52:19.616Z,20.85
2022-10-30T07:55:25.034Z,20.85
2022-10-30T07:58:27.820Z,20.85
2022-10-30T08:01:49.844Z,20.84
2022-10-30T08:05:17.183Z,20.84
2022-10-30T08:08:42.000Z,20.85
2022-10-30T08:12:00.178Z,20.84
2022-10-30T08:15:03.070Z,20.85
2022-10-30T08:18:06.761Z,20.86
2022-10-30T08:21:14.551Z,20.87
2022-10-30T08:24:29.366Z,20.87
2022-10-30T08:27:35.178Z,20.86
2022-10-30T08:30:39.579Z,20.87
2022-10-30T08:33:45.192Z,20.87
2022-10-30T08:37:04.320Z,20.86
2022-10-30T08:40:08.916Z,20.86
2022-10-30T08:43:31.967Z,20.85
2022-10-30T08:46:37.117Z,20.85
2022-10-30T08:49:40.417Z,20.85
2022-10-30T08:52:44.590Z,20.85
2022-10-30T08:55:48.315Z,20.87
2022-10-30T08:59:02.410Z,20.87
2022-10-30T09:02:05.327Z,20.88
2022-10-30T09:05:27.013Z,20.88
2022-10-30T09:08:51.171Z,20.87
2022-10-30T09:12:20.189Z,20.87
2022-10-30T09:15:23.529Z,20.86
2022-10-30T09:18:31.383Z,20.87
2022-10-30T09:21:34.688Z,20.86
2022-10-30T09:24:40.032Z,20.86
2022-10-30T09:28:12.034Z,20.86
2022-10-30T09:31:34.833Z,20.86
2022-10-30T09:34:39.864Z,20.86
2022-10-30T09:37:50.591Z,20.87
2022-10-30T09:41:11.932Z,20.87
2022-10-30T09:44:27.491Z,20.88
2022-10-30T09:47:39.814Z,20.89
2022-10-30T09:50:54.696Z,20.89
2022-10-30T09:54:09.039Z,20.88
2022-10-30T09:57:26.252Z,20.88
2022-10-30T10:00:36.990Z,20.88
2022-10-30T10:03:58.321Z,20.88
2022-10-30T10:07:21.143Z,20.88
2022-10-30T10:10:39.466Z,20.89
2022-10-30T10:13:54.651Z,20.88
2022-10-30T10:17:00.734Z,20.88
2022-10-30T10:20:05.687Z,20.89
2022-10-30T10:23:17.767Z,20.90
2022-10-30T10:26:31.835Z,20.91
2022-10-30T10:29:46.386Z,20.91
2022-10-30T10:33:07.367Z,20.91
2022-10-30T10:36:20.477Z,20.90
2022-10-30T10:39:45.345Z,20.90
2022-10-30T10:42:59.165Z,20.90
2022-10-30T10:46:24.491Z,20.89
2022-10-30T10:49:43.555Z,20.89
2022-10-30T10:52:50.853Z,20.89
2022-10-30T10:55:58.217Z,20.89
2022-10-30T10:59:03.202Z,20.88
2022-10-30T11:02:29.427Z,20.90
2022-10-30T11:05:37.087Z,20.91
2022-10-30T11:08:40.288Z,20.92
2022-10-30T11:11:44.032Z,20.91
2022-10-30T11:14:46.844Z,20.92
2022-10-30T11:17:57.121Z,20.92
2022-10-30T11:21:04.218Z,20.91
2022-10-30T11:24:27.871Z,20.91
2022-10-30T11:27:30.844Z,20.91
2022-10-30T11:30:34.020Z,20.91
2022-10-30T11:33:38.187Z,20.90
2022-10-30T11:36:41.009Z,20.91
2022-10-30T11:39:48.328Z,20.91
2022-10-30T11:42:59.253Z,20.91
2022-10-30T11:46:03.113Z,20.92
2022-10-30T11:49:07.378Z,20.92
2022-10-30T11:52:11.055Z,20.94
2022-10-30T11:55:19.338Z,20.93
2022-10-30T11:58:27.204Z,20.93
2022-10-30T12:01:32.215Z,20.92
2022-10-30T12:04:36.701Z,20.91
2022-10-30T12:07:39.500Z,20.93
2022-10-30T12:10:46.706Z,20.92
2022-10-30T12:13:49.639Z,20.92
2022-10-30T12:16:54.214Z,20.91
2022-10-30T12:20:07.506Z,20.92
2022-10-30T12:23:11.726Z,20.91
2022-10-30T12:26:16.679Z,20.93
2022-10-30T12:29:24.320Z,20.93
2022-10-30T12:32:39.672Z,20.93
2022-10-30T12:35:49.849Z,20.93
2022-10-30T12:38:57.770Z,20.95
2022-10-30T12:42:05.074Z,20.94
2022-10-30T12:45:14.627Z,20.93
2022-10-30T12:48:24.683Z,20.93
2022-10-30T12:51:36.690Z,20.92
2022-10-30T12:54:48.867Z,20.93
2022-10-30T12:57:59.247Z,20.94
2022-10-30T13:01:06.220Z,20.92
2022-10-30T13:04:13.743Z,20.93
2022-10-30T13:07:24.323Z,20.94
2022-10-30T13:10:32.030Z,20.93
2022-10-30T13:13:38.112Z,20.94
2022-10-30T13:16:40.902Z,20.95
2022-10-30T13:19:46.119Z,20.96
2022-10-30T13:22:55.068Z,20.95
2022-10-30T13:26:08.118Z,20.95
2022-10-30T13:29:19.578Z,20.94
2022-10-30T13:32:31.222Z,20.94
2022-10-30T13:35:42.725Z,20.95
2022-10-30T13:38:57.858Z,20.94
2022-10-30T13:42:19.813Z,20.94
2022-10-30T13:45:40.735Z,20.95
2022-10-30T13:48:59.827Z,20.93
2022-10-30T13:52:08.608Z,20.95
2022-10-30T13:55:20.850Z,20.96
2022-10-30T13:58:31.737Z,20.96
2022-10-30T14:01:41.122Z,20.97
2022-10-30T14:04:53.453Z,20.96
2022-10-30T14:08:06.329Z,20.95
2022-10-30T14:11:14.946Z,20.95
2022-10-30T14:14:46.532Z,20.95
2022-10-30T14:18:24.623Z,20.96
2022-10-30T14:21:32.899Z,20.95
2022-10-30T14:24:36.063Z,20.94
2022-10-30T14:27:40.654Z,20.95
2022-10-30T14:30:46.021Z,20.96
2022-10-30T14:33:50.646Z,20.95
2022-10-30T14:36:53.662Z,20.96
2022-10-30T14:39:57.954Z,20.97
2022-10-30T14:43:10.787Z,20.97
2022-10-30T14:46:24.733Z,20.97
2022-10-30T14:49:44.777Z,20.97
2022-10-30T14:53:03.228Z,20.96
2022-10-30T14:56:12.226Z,20.96
2022-10-30T14:59:33.288Z,20.95
2022-10-30T15:02:45.169Z,20.95
2022-10-30T15:05:53.691Z,20.95
2022-10-30T15:09:11.828Z,20.95
2022-10-30T15:15:38.106Z,20.96
2022-10-30T15:18:42.065Z,20.96
2022-10-30T15:21:47.527Z,20.97
2022-10-30T15:24:52.083Z,20.98
2022-10-30T15:27:57.662Z,20.97
2022-10-30T15:31:05.162Z,20.97
2022-10-30T15:34:22.575Z,20.96
2022-10-30T15:37:25.326Z,20.96
2022-10-30T15:40:29.323Z,20.97
2022-10-30T15:43:36.020Z,20.96
2022-10-30T15:46:41.032Z,20.95
2022-10-30T15:49:49.802Z,20.96
2022-10-30T15:52:53.987Z,20.95
2022-10-30T15:56:00.089Z,20.96
2022-10-30T15:59:05.414Z,20.97
2022-10-30T16:02:22.431Z,20.98
2022-10-30T16:05:25.855Z,20.97
2022-10-30T16:08:28.554Z,20.97
2022-10-30T16:11:31.491Z,20.96
2022-10-30T16:14:34.492Z,20.97
2022-10-30T16:17:38.917Z,20.96
2022-10-30T16:20:44.274Z,20.96
2022-10-30T16:23:52.841Z,20.95
2022-10-30T16:27:07.076Z,20.96
2022-10-30T16:30:15.011Z,20.95
2022-10-30T16:33:23.343Z,20.96
2022-10-30T16:36:26.633Z,20.95
2022-10-30T16:39:32.551Z,20.96
2022-10-30T16:42:35.475Z,20.96
2022-10-30T16:45:50.810Z,20.98
2022-10-30T16:48:59.402Z,20.97
2022-10-30T16:52:06.094Z,20.97
2022-10-30T16:55:16.572Z,20.96
2022-10-30T16:58:21.170Z,20.96
2022-10-30T17:01:26.945Z,20.96
2022-10-30T17:04:31.232Z,20.96
2022-10-30T17:07:34.704Z,20.95
2022-10-30T17:10:42.972Z,20.95
2022-10-30T17:13:59.928Z,20.95
2022-10-30T17:17:02.837Z,20.94
2022-10-30T17:20:14.393Z,20.95
2022-10-30T17:23:19.617Z,20.96
2022-10-30T17:26:22.671Z,20.97
2022-10-30T17:29:44.895Z,20.97
2022-10-30T17:32:53.434Z,20.96
2022-10-30T17:35:57.745Z,20.97
2022-10-30T17:39:00.588Z,20.96
2022-10-30T17:42:03.696Z,20.95
2022-10-30T17:45:10.431Z,20.95
2022-10-30T17:48:15.485Z,20.95
2022-10-30T17:51:20.094Z,20.94
2022-10-30T17:54:23.018Z,20.94
2022-10-30T17:57:27.067Z,20.95
2022-10-30T18:00:29.844Z,20.95
2022-10-30T18:03:32.830Z,20.95
2022-10-30T18:06:37.025Z,20.96
2022-10-30T18:09:40.529Z,20.96
2022-10-30T18:12:44.968Z,20.95
2022-10-30T18:15:54.503Z,20.96
2022-10-30T18:18:58.686Z,20.95
2022-10-30T18:22:03.027Z,20.96
2022-10-30T18:25:16.439Z,20.95
2022-10-30T18:28:19.566Z,20.93
2022-10-30T18:31:24.197Z,20.95
2022-10-30T18:34:27.121Z,20.94
2022-10-30T18:37:31.326Z,20.93
2022-10-30T18:40:34.043Z,20.93
2022-10-30T18:43:36.748Z,20.94
2022-10-30T18:46:39.450Z,20.95
2022-10-30T18:49:42.286Z,20.96
2022-10-30T18:52:46.642Z,20.97
2022-10-30T18:55:49.435Z,20.96
2022-10-30T18:58:56.450Z,20.95
2022-10-30T19:02:04.755Z,20.95
2022-10-30T19:05:35.466Z,20.94
2022-10-30T19:08:39.646Z,20.94
2022-10-30T19:11:44.500Z,20.93
2022-10-30T19:14:49.329Z,20.93
2022-10-30T19:17:52.105Z,20.94
2022-10-30T19:21:15.787Z,20.93
2022-10-30T19:24:19.993Z,20.93
2022-10-30T19:27:24.322Z,20.94
2022-10-30T19:30:27.104Z,20.94
2022-10-30T19:33:29.873Z,20.94
2022-10-30T19:36:36.014Z,20.95
2022-10-30T19:39:40.178Z,20.94
2022-10-30T19:42:43.023Z,20.94
2022-10-30T19:45:46.636Z,20.94
2022-10-30T19:48:59.313Z,20.93
2022-10-30T19:52:02.846Z,20.93
2022-10-30T19:55:08.154Z,20.91
2022-10-30T19:58:13.623Z,20.93
2022-10-30T20:01:16.819Z,20.92
2022-10-30T20:04:19.745Z,20.92
2022-10-30T20:07:22.558Z,20.94
2022-10-30T20:10:27.083Z,20.94
2022-10-30T20:13:33.143Z,20.95
2022-10-30T20:16:36.425Z,20.94
2022-10-30T20:19:39.290Z,20.94
2022-10-30T20:22:42.196Z,20.94
2022-10-30T20:25:46.486Z,20.94
2022-10-30T20:28:49.557Z,20.93
2022-10-30T20:31:52.311Z,20.93
2022-10-30T20:34:55.067Z,20.92
2022-10-30T20:37:59.561Z,20.93
2022-10-30T20:41:05.859Z,20.91
2022-10-30T20:44:12.515Z,20.91
2022-10-30T20:47:15.510Z,20.92
2022-10-30T20:50:19.658Z,20.91
2022-10-30T20:53:22.428Z,20.93
2022-10-30T20:56:26.594Z,20.94
2022-10-30T20:59:29.361Z,20.94
2022-10-30T21:02:32.267Z,20.93
2022-10-30T21:05:43.790Z,20.93
2022-10-30T21:08:47.355Z,20.91
2022-10-30T21:11:51.517Z,20.92
2022-10-30T21:14:54.388Z,20.91
2022-10-30T21:17:57.512Z,20.91
2022-10-30T21:21:02.231Z,20.91
2022-10-30T21:24:05.340Z,20.90
2022-10-30T21:27:09.492Z,20.91
2022-10-30T21:30:13.023Z,20.91
2022-10-30T21:33:15.834Z,20.92
2022-10-30T21:36:20.917Z,20.92
2022-10-30T21:39:23.706Z,20.93
2022-10-30T21:45:35.569Z,20.92
2022-10-30T21:48:38.753Z,20.92
2022-10-30T21:51:41.538Z,20.91
2022-10-30T21:54:44.305Z,20.91
2022-10-30T21:57:48.500Z,20.91
2022-10-30T22:00:51.322Z,20.90
2022-10-30T22:03:54.136Z,20.89
2022-10-30T22:06:56.888Z,20.89
2022-10-30T22:09:59.701Z,20.90
2022-10-30T22:13:03.927Z,20.90
2022-10-30T22:16:08.891Z,20.90
2022-10-30T22:19:11.774Z,20.91
2022-10-30T22:22:14.578Z,20.93
2022-10-30T22:25:17.493Z,20.91
2022-10-30T22:28:21.696Z,20.91
2022-10-30T22:31:25.728Z,20.91
2022-10-30T22:34:28.539Z,20.90
2022-10-30T22:37:31.343Z,20.90
2022-10-30T22:40:34.108Z,20.89
2022-10-30T22:43:38.290Z,20.89
2022-10-30T22:46:41.903Z,20.89
2022-10-30T22:49:44.693Z,20.88
2022-10-30T22:52:47.484Z,20.88
2022-10-30T22:55:50.271Z,20.89
2022-10-30T22:58:54.987Z,20.89
2022-10-30T23:01:57.796Z,20.89
2022-10-30T23:05:00.591Z,20.90
2022-10-30T23:08:03.431Z,20.90
2022-10-30T23:11:07.179Z,20.89
2022-10-30T23:14:11.359Z,20.89
2022-10-30T23:17:14.113Z,20.88
2022-10-30T23:20:16.971Z,20.88
2022-10-30T23:23:19.752Z,20.87
2022-10-30T23:26:24.328Z,20.87
2022-10-30T23:29:28.472Z,20.87
2022-10-30T23:32:31.257Z,20.86
2022-10-30T23:35:34.071Z,20.87
2022-10-30T23:38:36.853Z,20.86
2022-10-30T23:41:39.677Z,20.87
2022-10-30T23:44:43.831Z,20.88
2022-10-30T23:47:46.660Z,20.87
2022-10-30T23:50:49.444Z,20.87
2022-10-30T23:53:52.492Z,20.87
2022-10-30T23:56:55.446Z,20.87
2022-10-30T23:59:59.589Z,20.86
